Time;durP1;ratioP1;P1;durP2;ratioP2;P2;SDS_P1;SDS_P2;PMS_P1;PMS_P2;Temp;Humidity;BMP_temperature;BMP_pressure;BME280_temperature;BME280_humidity;BME280_pressure;Samples;Min_cycle;Max_cycle;Signal;HPM_P1;HPM_P2
2022/03/13 00:01:40;;;;;;;;;11.00;10.67;;;;;9.84;75.25;100882.28;5018583;28;45442;-68
2022/03/13 00:04:06;;;;;;;;;12.67;11.67;;;;;9.84;75.07;100878.69;5019053;28;45725;-67
2022/03/13 00:06:38;;;;;;;;;11.33;10.00;;;;;9.86;75.21;100874.84;5017254;28;45493;-65
2022/03/13 00:09:09;;;;;;;;;9.67;9.67;;;;;9.81;74.72;100863.53;5015329;28;45414;-68
2022/03/13 00:11:35;;;;;;;;;12.33;9.33;;;;;9.89;74.57;100874.56;5020413;28;45514;-68
2022/03/13 00:14:00;;;;;;;;;10.00;8.33;;;;;9.95;74.34;100871.28;5018164;28;45542;-67
2022/03/13 00:16:26;;;;;;;;;14.00;11.00;;;;;9.89;74.31;100863.69;5023017;28;45449;-67
2022/03/13 00:18:51;;;;;;;;;9.67;9.00;;;;;9.89;73.61;100861.00;5021718;28;45535;-67
2022/03/13 00:21:20;;;;;;;;;11.00;9.00;;;;;9.91;74.12;100875.28;5023533;28;45303;-67
2022/03/13 00:23:47;;;;;;;;;11.00;11.00;;;;;9.93;73.99;100870.59;5021262;28;47095;-67
2022/03/13 00:26:17;;;;;;;;;9.67;9.67;;;;;9.92;73.29;100866.16;5020566;28;45478;-67
2022/03/13 00:28:45;;;;;;;;;14.67;13.00;;;;;9.94;73.25;100871.41;5015675;28;45402;-67
2022/03/13 00:31:11;;;;;;;;;9.33;8.33;;;;;9.97;73.54;100869.28;5024756;28;45628;-67
2022/03/13 00:33:37;;;;;;;;;8.00;8.00;;;;;9.96;73.65;100859.44;5023092;28;45388;-67
2022/03/13 00:36:03;;;;;;;;;10.00;6.33;;;;;10.05;73.65;100866.72;5023288;28;45640;-66
2022/03/13 00:38:29;;;;;;;;;13.00;9.67;;;;;10.07;72.89;100862.03;5023198;28;45348;-66
2022/03/13 00:40:56;;;;;;;;;10.00;8.00;;;;;10.05;72.56;100864.00;5019846;28;45562;-66
2022/03/13 00:43:23;;;;;;;;;9.00;8.00;;;;;10.06;72.67;100859.44;5023824;28;45627;-66
2022/03/13 00:45:49;;;;;;;;;14.33;12.00;;;;;10.06;72.01;100865.72;5014526;28;45869;-66
2022/03/13 00:48:16;;;;;;;;;7.00;7.00;;;;;10.09;72.24;100860.00;5024615;28;45362;-66
2022/03/13 00:50:42;;;;;;;;;9.67;9.67;;;;;10.11;72.30;100860.72;5018713;28;45636;-66
2022/03/13 00:53:08;;;;;;;;;9.67;8.00;;;;;10.13;72.02;100860.59;5024697;28;46536;-67
2022/03/13 00:55:33;;;;;;;;;8.00;8.00;;;;;10.15;71.95;100859.41;5017900;28;45394;-67
2022/03/13 00:57:59;;;;;;;;;10.67;8.00;;;;;10.15;72.72;100856.72;5024866;28;45344;-67
2022/03/13 01:00:24;;;;;;;;;10.67;9.00;;;;;10.17;72.03;100856.59;5018309;28;45466;-67
2022/03/13 01:02:50;;;;;;;;;11.00;8.00;;;;;10.21;71.68;100857.19;5024710;28;46675;-67
2022/03/13 01:05:24;;;;;;;;;5.00;5.00;;;;;10.21;70.89;100852.63;5022422;28;45353;-67
2022/03/13 01:07:51;;;;;;;;;8.00;8.00;;;;;10.25;71.26;100856.75;5018522;28;45416;-67
2022/03/13 01:10:16;;;;;;;;;11.33;9.00;;;;;10.28;70.70;100861.03;5018484;28;45304;-67
2022/03/13 01:12:42;;;;;;;;;11.00;9.00;;;;;10.24;70.51;100846.88;5022912;28;47361;-67
2022/03/13 01:15:09;;;;;;;;;7.00;5.00;;;;;10.25;70.61;100843.16;5018132;28;45442;-67
2022/03/13 01:17:34;;;;;;;;;7.33;7.33;;;;;10.32;70.55;100843.44;5020126;28;45491;-68
2022/03/13 01:20:02;;;;;;;;;8.00;5.00;;;;;10.33;69.85;100834.31;5019964;28;45339;-67
2022/03/13 01:22:28;;;;;;;;;8.00;7.67;;;;;10.35;70.02;100827.72;5020548;28;45635;-67
2022/03/13 01:24:53;;;;;;;;;8.00;8.00;;;;;10.39;69.95;100833.72;5020674;28;45422;-67
2022/03/13 01:27:20;;;;;;;;;11.00;11.00;;;;;10.36;69.81;100829.44;5019284;28;45418;-68
2022/03/13 01:29:47;;;;;;;;;6.33;6.00;;;;;10.39;69.63;100833.72;5022022;28;45556;-67
2022/03/13 01:32:14;;;;;;;;;7.33;5.33;;;;;10.40;69.63;100825.44;5022979;28;46381;-67
2022/03/13 01:34:44;;;;;;;;;9.67;8.00;;;;;10.43;69.36;100819.72;5021422;28;45353;-67
2022/03/13 01:37:15;;;;;;;;;6.00;6.00;;;;;10.42;69.66;100819.84;5039483;28;45354;-67
2022/03/13 01:39:42;;;;;;;;;7.33;5.00;;;;;10.39;67.88;100814.72;5019732;28;45606;-67
2022/03/13 01:42:07;;;;;;;;;5.33;5.00;;;;;10.42;68.72;100814.44;5019809;28;46611;-67
2022/03/13 01:44:33;;;;;;;;;5.00;5.00;;;;;10.43;69.13;100818.88;5017883;28;45445;-67
2022/03/13 01:47:00;;;;;;;;;5.00;5.00;;;;;10.47;68.41;100809.41;5023868;28;45487;-67
2022/03/13 01:49:26;;;;;;;;;4.33;4.33;;;;;10.45;68.26;100811.41;5020516;28;45458;-67
2022/03/13 01:51:52;;;;;;;;;4.67;4.67;;;;;10.43;68.44;100802.56;5019439;28;45415;-67
2022/03/13 01:54:17;;;;;;;;;10.33;7.00;;;;;10.47;68.23;100810.25;5018191;28;45359;-67
2022/03/13 01:56:43;;;;;;;;;6.00;6.00;;;;;10.48;68.25;100802.97;5023404;28;45382;-67
2022/03/13 01:59:10;;;;;;;;;5.67;5.67;;;;;10.46;68.23;100800.41;5019813;28;45668;-67
2022/03/13 02:01:37;;;;;;;;;6.00;5.00;;;;;10.47;68.35;100799.41;5022038;28;45391;-67
2022/03/13 02:04:03;;;;;;;;;9.33;5.33;;;;;10.50;67.93;100803.69;5019716;28;45422;-67
2022/03/13 02:06:29;;;;;;;;;5.67;5.33;;;;;10.48;67.71;100789.38;5021269;28;45351;-67
2022/03/13 02:08:55;;;;;;;;;6.00;6.00;;;;;10.47;68.05;100793.97;5021430;28;45556;-67
2022/03/13 02:11:49;;;;;;;;;5.67;5.67;;;;;10.45;67.84;100785.09;5019813;28;46374;-67
2022/03/13 02:14:12;;;;;;;;;7.00;5.00;;;;;10.37;67.41;100776.84;5018661;28;45528;-67
2022/03/13 02:16:38;;;;;;;;;7.33;5.00;;;;;10.30;68.59;100780.28;5022651;28;45366;-67
2022/03/13 02:19:06;;;;;;;;;8.33;6.33;;;;;10.23;68.15;100779.16;5019967;28;45698;-68
2022/03/13 02:21:39;;;;;;;;;7.67;7.00;;;;;10.15;68.60;100771.72;5020505;28;45421;-67
2022/03/13 02:24:11;;;;;;;;;5.00;5.00;;;;;10.04;69.04;100775.44;5019894;28;45422;-67
2022/03/13 02:26:36;;;;;;;;;8.67;8.67;;;;;9.99;69.29;100769.59;5021737;28;45347;-67
2022/03/13 02:29:03;;;;;;;;;11.00;8.00;;;;;9.91;69.86;100760.44;5021289;28;45481;-67
2022/03/13 02:31:37;;;;;;;;;5.00;5.00;;;;;9.86;69.34;100769.03;5022234;28;45422;-67
2022/03/13 02:34:04;;;;;;;;;8.00;6.33;;;;;9.79;69.68;100758.88;5021153;28;45513;-67
2022/03/13 02:36:34;;;;;;;;;13.00;8.00;;;;;9.77;70.24;100765.31;5015199;28;45363;-67
2022/03/13 02:39:00;;;;;;;;;7.33;6.33;;;;;9.71;70.18;100751.47;5019005;28;45723;-67
2022/03/13 02:41:28;;;;;;;;;10.00;6.67;;;;;9.66;70.07;100749.16;5020187;28;45458;-67
2022/03/13 02:43:55;;;;;;;;;6.33;6.33;;;;;9.61;71.00;100750.59;5020456;28;45400;-67
2022/03/13 02:46:24;;;;;;;;;7.00;6.00;;;;;9.59;70.55;100749.88;5048219;28;45448;-67
2022/03/13 02:48:51;;;;;;;;;8.00;8.00;;;;;9.55;70.53;100751.16;5021675;28;45514;-67
2022/03/13 02:51:18;;;;;;;;;14.00;8.33;;;;;9.53;70.58;100745.00;5018200;28;46348;-67
2022/03/13 02:53:44;;;;;;;;;4.67;4.67;;;;;9.47;70.72;100741.03;5019616;28;45490;-67
2022/03/13 02:56:10;;;;;;;;;5.00;5.00;;;;;9.45;70.61;100744.84;5018540;28;45414;-67
2022/03/13 02:58:35;;;;;;;;;9.00;9.00;;;;;9.44;70.57;100746.72;5021156;28;45521;-67
2022/03/13 03:01:01;;;;;;;;;9.00;7.33;;;;;9.42;70.40;100750.59;5033428;28;47807;-67
2022/03/13 03:03:27;;;;;;;;;9.00;9.00;;;;;9.38;70.59;100740.00;5021939;28;45375;-67
2022/03/13 03:05:53;;;;;;;;;10.67;9.33;;;;;9.38;70.55;100740.00;5019564;28;45392;-67
2022/03/13 03:08:20;;;;;;;;;9.33;8.00;;;;;9.36;70.72;100742.00;5023346;28;45528;-67
2022/03/13 03:10:46;;;;;;;;;9.33;8.00;;;;;9.29;70.33;100740.84;5019541;28;45430;-67
2022/03/13 03:13:13;;;;;;;;;11.00;8.00;;;;;9.29;70.52;100738.13;5018110;28;46069;-67
2022/03/13 03:15:39;;;;;;;;;13.33;10.00;;;;;9.25;71.03;100739.44;5029785;28;45508;-67
2022/03/13 03:18:06;;;;;;;;;11.33;11.33;;;;;9.23;71.32;100740.56;5020919;28;45313;-67
2022/03/13 03:20:32;;;;;;;;;8.00;8.00;;;;;9.22;70.85;100736.97;5017064;28;46663;-67
2022/03/13 03:22:57;;;;;;;;;13.67;7.67;;;;;9.17;71.08;100735.69;5020665;28;45398;-67
2022/03/13 03:25:25;;;;;;;;;9.67;9.67;;;;;9.17;70.93;100735.69;5017503;28;45225;-66
2022/03/13 03:27:52;;;;;;;;;13.67;9.00;;;;;9.13;71.78;100735.09;5022664;28;45165;-67
2022/03/13 03:30:22;;;;;;;;;9.33;9.33;;;;;9.13;71.29;100731.56;5020008;28;45371;-67
2022/03/13 03:32:48;;;;;;;;;13.67;8.00;;;;;9.13;70.87;100734.28;5021961;28;45361;-67
2022/03/13 03:35:15;;;;;;;;;8.00;8.00;;;;;9.12;71.05;100735.25;5020554;28;45400;-67
2022/03/13 03:37:41;;;;;;;;;8.00;8.00;;;;;9.09;71.25;100727.41;5018253;28;45529;-67
2022/03/13 03:40:07;;;;;;;;;11.00;7.00;;;;;9.05;71.10;100716.00;5008136;28;48113;-67
2022/03/13 03:42:33;;;;;;;;;9.67;8.00;;;;;9.09;71.13;100730.97;5021352;28;45355;-67
2022/03/13 03:44:59;;;;;;;;;8.67;8.00;;;;;9.06;70.14;100733.94;5016981;28;45562;-67
2022/03/13 03:47:24;;;;;;;;;8.00;8.00;;;;;9.08;70.91;100736.53;5022600;28;45345;-67
2022/03/13 03:49:50;;;;;;;;;9.00;8.00;;;;;8.92;70.65;100709.94;5016032;28;45908;-67
2022/03/13 03:52:15;;;;;;;;;10.00;8.33;;;;;9.01;70.22;100714.53;5023380;28;45278;-67
2022/03/13 03:54:40;;;;;;;;;9.33;8.67;;;;;9.02;70.55;100727.09;5019471;28;45468;-66
2022/03/13 03:57:06;;;;;;;;;10.00;10.00;;;;;8.97;71.10;100723.97;5026201;28;45399;-67
2022/03/13 03:59:31;;;;;;;;;13.00;8.00;;;;;8.98;70.85;100725.69;5019153;28;45649;-67
2022/03/13 04:01:57;;;;;;;;;10.67;9.00;;;;;9.01;70.40;100730.81;5025359;28;45327;-67
2022/03/13 04:04:22;;;;;;;;;9.67;8.33;;;;;8.98;70.66;100731.94;5021673;28;45685;-67
2022/03/13 04:06:48;;;;;;;;;9.00;9.00;;;;;8.96;70.40;100722.25;5024666;28;45370;-65
2022/03/13 04:09:13;;;;;;;;;11.33;10.33;;;;;8.97;70.13;100729.38;5023062;28;48518;-65
2022/03/13 04:11:40;;;;;;;;;16.00;10.33;;;;;8.96;70.59;100716.81;5021303;28;45338;-65
2022/03/13 04:14:08;;;;;;;;;10.33;9.33;;;;;8.98;70.29;100722.97;5021831;28;45323;-65
2022/03/13 04:16:34;;;;;;;;;14.67;12.00;;;;;8.98;70.35;100723.78;5023566;28;45754;-65
2022/03/13 04:19:00;;;;;;;;;11.67;8.67;;;;;8.98;70.33;100712.97;5022025;28;47992;-65
2022/03/13 04:21:25;;;;;;;;;10.00;9.00;;;;;9.02;70.29;100727.09;5023046;28;45335;-65
2022/03/13 04:23:51;;;;;;;;;10.00;7.67;;;;;9.07;69.70;100734.81;5023371;28;45691;-68
2022/03/13 04:26:17;;;;;;;;;9.33;9.00;;;;;9.02;69.70;100732.53;5022713;28;45470;-67
2022/03/13 04:28:42;;;;;;;;;14.00;8.00;;;;;9.03;69.40;100728.81;5021642;28;47102;-67
2022/03/13 04:31:08;;;;;;;;;5.67;5.67;;;;;9.04;69.64;100735.09;5016026;28;45346;-65
2022/03/13 04:33:35;;;;;;;;;9.67;8.00;;;;;8.96;69.85;100727.66;5023787;28;45161;-65
2022/03/13 04:36:05;;;;;;;;;12.00;7.00;;;;;9.02;69.56;100737.94;5020684;28;45548;-67
2022/03/13 04:38:30;;;;;;;;;11.00;8.00;;;;;9.04;69.17;100733.25;5015626;28;47271;-67
2022/03/13 04:40:57;;;;;;;;;7.00;7.00;;;;;9.10;69.01;100738.09;5019954;28;45395;-68
2022/03/13 04:43:23;;;;;;;;;8.33;7.00;;;;;9.09;69.57;100739.09;5020513;28;45402;-67
2022/03/13 04:45:50;;;;;;;;;8.67;8.67;;;;;9.15;69.10;100738.53;5017117;28;45316;-67
2022/03/13 04:48:17;;;;;;;;;7.33;7.33;;;;;9.17;69.57;100739.25;5020334;28;47512;-67
2022/03/13 04:50:43;;;;;;;;;7.33;7.33;;;;;9.21;69.07;100737.13;5018042;28;45222;-67
2022/03/13 04:53:08;;;;;;;;;8.67;8.67;;;;;9.25;69.08;100730.44;5020483;28;45304;-67
2022/03/13 04:55:33;;;;;;;;;6.00;5.00;;;;;9.25;68.44;100730.44;5018274;28;45706;-65
2022/03/13 04:57:59;;;;;;;;;8.00;8.00;;;;;9.20;68.33;100720.03;5024859;28;45484;-66
2022/03/13 05:00:26;;;;;;;;;21.25;21.25;;;;;9.25;68.18;100722.28;5017021;28;45452;-67
2022/03/13 05:02:52;;;;;;;;;8.00;8.00;;;;;9.30;68.59;100725.44;5024117;28;45393;-65
2022/03/13 05:05:18;;;;;;;;;8.00;7.00;;;;;9.30;67.75;100714.59;5020845;28;45409;-65
2022/03/13 05:07:44;;;;;;;;;10.00;8.00;;;;;9.29;68.24;100721.00;5024645;28;46368;-65
2022/03/13 05:10:11;;;;;;;;;9.00;7.00;;;;;9.26;68.45;100716.75;5018423;28;45173;-66
2022/03/13 05:12:36;;;;;;;;;7.33;5.33;;;;;9.30;67.72;100718.16;5023428;28;45442;-65
2022/03/13 05:15:02;;;;;;;;;9.67;6.33;;;;;9.34;68.12;100711.47;5019466;28;46048;-65
2022/03/13 05:17:28;;;;;;;;;8.33;5.67;;;;;9.34;68.00;100706.06;5019440;28;47947;-65
2022/03/13 05:19:53;;;;;;;;;8.67;7.00;;;;;9.35;67.67;100702.31;5019841;28;45323;-66
2022/03/13 05:22:19;;;;;;;;;4.33;3.00;;;;;9.36;67.73;100714.03;5019892;28;45329;-66
2022/03/13 05:24:44;;;;;;;;;9.00;6.00;;;;;9.30;67.96;100709.16;5020874;28;45476;-66
2022/03/13 05:27:09;;;;;;;;;4.00;4.00;;;;;9.29;67.74;100713.72;5038284;28;48211;-66
2022/03/13 05:29:35;;;;;;;;;6.67;4.00;;;;;9.28;67.08;100720.16;5021770;28;45311;-66
2022/03/13 05:32:00;;;;;;;;;7.33;4.00;;;;;9.28;67.46;100722.84;5023987;28;45454;-66
2022/03/13 05:34:25;;;;;;;;;4.67;4.67;;;;;9.29;66.90;100721.00;5022434;28;45381;-66
2022/03/13 05:36:51;;;;;;;;;7.67;6.00;;;;;9.27;66.99;100721.16;5016352;28;45318;-66
2022/03/13 05:39:16;;;;;;;;;4.00;4.00;;;;;9.32;67.40;100729.72;5021919;28;45568;-67
2022/03/13 05:41:42;;;;;;;;;5.67;5.00;;;;;9.31;66.63;100725.31;5017464;28;45378;-66
2022/03/13 05:44:09;;;;;;;;;4.00;4.00;;;;;9.36;66.96;100724.88;5020596;28;45469;-66
2022/03/13 05:46:35;;;;;;;;;7.33;5.00;;;;;9.37;66.75;100726.59;5016758;28;45605;-66
2022/03/13 05:49:01;;;;;;;;;5.67;5.00;;;;;9.35;66.76;100725.88;5019580;28;45307;-66
2022/03/13 05:51:26;;;;;;;;;6.00;5.67;;;;;9.33;66.73;100726.03;5020614;28;45173;-66
2022/03/13 05:53:51;;;;;;;;;5.67;4.33;;;;;9.30;66.97;100731.72;5022401;28;45208;-66
2022/03/13 05:56:17;;;;;;;;;7.33;3.67;;;;;9.31;66.90;100730.72;5019719;28;46152;-66
2022/03/13 05:58:42;;;;;;;;;4.00;4.00;;;;;9.30;66.39;100731.72;5020053;28;45296;-66
2022/03/13 06:01:09;;;;;;;;;5.00;5.00;;;;;9.28;67.08;100733.69;5019266;28;45398;-66
2022/03/13 06:03:34;;;;;;;;;4.33;4.00;;;;;9.28;66.75;100727.41;5022696;28;45272;-66
2022/03/13 06:06:02;;;;;;;;;2.33;2.33;;;;;9.28;67.11;100728.28;5020911;28;45511;-66
2022/03/13 06:08:27;;;;;;;;;3.00;3.00;;;;;9.24;66.39;100735.00;5022834;28;45768;-66
2022/03/13 06:10:53;;;;;;;;;4.00;4.00;;;;;9.22;66.67;100730.69;5017824;28;45362;-66
2022/03/13 06:13:19;;;;;;;;;5.00;4.00;;;;;9.18;66.45;100722.00;5023710;28;45224;-66
2022/03/13 06:15:45;;;;;;;;;6.00;3.67;;;;;9.22;66.01;100730.69;5019853;28;47479;-66
2022/03/13 06:18:11;;;;;;;;;8.00;5.67;;;;;9.29;66.29;100739.97;5022949;28;45317;-66
2022/03/13 06:20:36;;;;;;;;;3.00;3.00;;;;;9.25;66.19;100730.44;5019090;28;45260;-66
2022/03/13 06:23:03;;;;;;;;;4.00;4.00;;;;;9.26;66.50;100737.56;5023805;28;45232;-66
2022/03/13 06:25:29;;;;;;;;;3.00;3.00;;;;;9.28;66.51;100746.41;5020724;28;46124;-66
2022/03/13 06:27:55;;;;;;;;;3.33;3.33;;;;;9.30;66.29;100741.69;5022154;28;45378;-67
2022/03/13 06:30:21;;;;;;;;;3.33;3.33;;;;;9.29;66.08;100742.69;5014306;28;45666;-67
2022/03/13 06:32:51;;;;;;;;;3.33;3.00;;;;;9.30;66.20;100747.97;5022305;28;45394;-67
2022/03/13 06:35:19;;;;;;;;;2.00;2.00;;;;;9.32;66.37;100745.13;5013922;28;46248;-67
2022/03/13 06:37:45;;;;;;;;;3.00;3.00;;;;;9.31;66.14;100754.25;5021309;28;45405;-67
2022/03/13 06:40:13;;;;;;;;;3.33;3.33;;;;;9.34;65.78;100752.16;5016763;28;45441;-67
2022/03/13 06:42:38;;;;;;;;;4.00;4.00;;;;;9.37;65.91;100751.84;5010461;28;45395;-67
2022/03/13 06:45:06;;;;;;;;;3.00;3.00;;;;;9.38;65.61;100755.41;5017550;28;48213;-68
2022/03/13 06:47:31;;;;;;;;;4.00;4.00;;;;;9.39;65.71;100754.44;5013380;28;45504;-68
2022/03/13 06:49:57;;;;;;;;;4.00;4.00;;;;;9.38;65.71;100747.28;5020420;28;45271;-69
2022/03/13 06:52:22;;;;;;;;;3.00;3.00;;;;;9.47;65.69;100767.28;5021930;28;45544;-68
2022/03/13 06:54:48;;;;;;;;;4.33;4.33;;;;;9.46;65.26;100757.44;5018842;28;45544;-68
2022/03/13 06:57:15;;;;;;;;;5.00;4.00;;;;;9.51;65.23;100747.00;5020891;28;45516;-69
2022/03/13 06:59:42;;;;;;;;;7.00;7.00;;;;;9.62;65.16;100747.75;5019045;28;45399;-68
2022/03/13 07:02:09;;;;;;;;;5.33;4.33;;;;;9.76;64.81;100757.31;5011529;28;45264;-68
2022/03/13 07:04:35;;;;;;;;;6.67;6.33;;;;;9.76;63.94;100758.16;5012301;28;46475;-69
2022/03/13 07:07:00;;;;;;;;;4.00;4.00;;;;;9.74;64.28;100746.59;5022117;28;45394;-69
2022/03/13 07:09:26;;;;;;;;;4.67;4.67;;;;;9.82;64.45;100743.16;5016831;28;45304;-69
2022/03/13 07:11:51;;;;;;;;;5.00;4.00;;;;;9.87;63.83;100749.00;5018314;28;45391;-69
2022/03/13 07:14:18;;;;;;;;;3.67;3.67;;;;;9.94;63.99;100752.84;5017632;28;45619;-69
2022/03/13 07:16:44;;;;;;;;;4.00;4.00;;;;;10.16;63.33;100755.25;5018699;28;45442;-69
2022/03/13 07:19:09;;;;;;;;;4.00;4.00;;;;;10.24;62.99;100753.69;5018494;28;45451;-69
2022/03/13 07:21:35;;;;;;;;;5.00;5.00;;;;;10.10;62.69;100744.97;5018434;28;45571;-69
2022/03/13 07:24:00;;;;;;;;;3.33;3.33;;;;;10.15;62.48;100747.28;5018121;28;45497;-69
2022/03/13 07:26:25;;;;;;;;;5.00;3.33;;;;;10.23;62.25;100736.56;5021028;28;45379;-69
2022/03/13 07:28:51;;;;;;;;;4.00;3.33;;;;;10.70;61.73;100734.69;5021884;28;45970;-69
2022/03/13 07:31:16;;;;;;;;;5.33;2.33;;;;;10.91;60.01;100727.16;5015160;28;45617;-68
2022/03/13 07:33:41;;;;;;;;;2.00;2.00;;;;;11.11;60.27;100725.16;5022316;28;46193;-69
2022/03/13 07:36:07;;;;;;;;;4.33;4.33;;;;;11.17;59.53;100738.19;5016918;28;45692;-69
2022/03/13 07:38:32;;;;;;;;;4.00;4.00;;;;;11.20;60.19;100739.72;5021935;28;45488;-69
2022/03/13 07:40:58;;;;;;;;;5.00;3.00;;;;;11.19;59.13;100735.28;5020700;28;45566;-69
2022/03/13 07:43:23;;;;;;;;;3.67;3.67;;;;;11.25;58.42;100742.84;5018318;28;45232;-69
2022/03/13 07:45:49;;;;;;;;;2.33;2.33;;;;;11.16;59.17;100749.19;5016925;28;45438;-69
2022/03/13 07:48:16;;;;;;;;;2.00;2.00;;;;;11.10;58.36;100747.09;5038152;28;45288;-69
2022/03/13 07:50:41;;;;;;;;;2.67;2.67;;;;;11.00;58.22;100747.13;5018704;28;45324;-69
2022/03/13 07:53:06;;;;;;;;;2.67;2.67;;;;;11.02;58.33;100755.16;5025831;28;45345;-69
2022/03/13 07:55:32;;;;;;;;;3.00;2.00;;;;;10.96;58.47;100750.31;5019080;28;45224;-69
2022/03/13 07:57:57;;;;;;;;;4.00;2.33;;;;;10.88;57.96;100749.19;5025968;28;45244;-68
2022/03/13 08:00:24;;;;;;;;;3.00;3.00;;;;;10.98;58.50;100748.28;5018871;28;45372;-69
2022/03/13 08:02:50;;;;;;;;;2.33;2.33;;;;;11.07;57.45;100752.81;5024231;28;47391;-68
2022/03/13 08:05:23;;;;;;;;;4.00;3.00;;;;;11.19;57.61;100744.31;5023106;28;45486;-69
2022/03/13 08:07:49;;;;;;;;;1.33;1.33;;;;;11.29;56.87;100752.41;5024229;28;45375;-69
2022/03/13 08:10:23;;;;;;;;;2.00;2.00;;;;;11.61;57.04;100749.19;5023783;28;45341;-69
2022/03/13 08:12:49;;;;;;;;;4.00;3.00;;;;;11.76;56.54;100747.66;5022245;28;45779;-69
2022/03/13 08:15:15;;;;;;;;;2.67;2.33;;;;;12.09;56.10;100729.72;5020399;28;45269;-69
2022/03/13 08:17:40;;;;;;;;;4.00;4.00;;;;;12.41;56.03;100742.72;5022442;28;45406;-69
2022/03/13 08:20:07;;;;;;;;;4.67;3.00;;;;;12.56;54.86;100738.41;5022380;28;45438;-69
2022/03/13 08:22:33;;;;;;;;;2.67;2.67;;;;;12.72;53.87;100737.59;5022053;28;47033;-69
2022/03/13 08:24:58;;;;;;;;;3.67;3.67;;;;;13.12;53.95;100745.13;5022602;28;45427;-69
2022/03/13 08:27:24;;;;;;;;;4.33;4.00;;;;;13.24;52.15;100727.47;5021656;28;45315;-70
2022/03/13 08:29:50;;;;;;;;;3.00;3.00;;;;;13.34;51.29;100728.19;5019418;28;45513;-69
2022/03/13 08:32:16;;;;;;;;;3.00;3.00;;;;;13.55;51.80;100730.44;5019289;28;45332;-69
2022/03/13 08:34:42;;;;;;;;;6.00;3.00;;;;;13.55;51.03;100723.09;5021134;28;45450;-69
2022/03/13 08:37:08;;;;;;;;;1.33;1.00;;;;;13.45;50.82;100719.66;5016334;28;45417;-70
2022/03/13 08:39:34;;;;;;;;;2.00;2.00;;;;;13.66;51.34;100716.47;5019484;28;45424;-69
2022/03/13 08:42:00;;;;;;;;;3.00;3.00;;;;;13.62;49.40;100726.88;5023328;28;48152;-69
2022/03/13 08:44:25;;;;;;;;;4.00;3.00;;;;;13.61;49.86;100724.31;5022522;28;45456;-69
2022/03/13 08:46:50;;;;;;;;;3.33;2.00;;;;;13.61;48.53;100714.25;5022695;28;45468;-70
2022/03/13 08:49:16;;;;;;;;;2.00;2.00;;;;;13.96;50.23;100713.06;5020896;28;45541;-69
2022/03/13 08:51:42;;;;;;;;;3.00;3.00;;;;;14.30;50.07;100725.69;5023016;28;46089;-69
2022/03/13 08:54:08;;;;;;;;;3.00;3.00;;;;;14.33;48.35;100717.13;5021616;28;45267;-69
2022/03/13 08:56:33;;;;;;;;;2.00;2.00;;;;;14.67;47.76;100723.25;5022020;28;45573;-69
2022/03/13 08:58:59;;;;;;;;;1.00;1.00;;;;;14.49;45.80;100719.84;5023312;28;45316;-69
2022/03/13 09:01:25;;;;;;;;;3.00;3.00;;;;;14.73;47.25;100733.47;5016521;28;48574;-69
2022/03/13 09:03:51;;;;;;;;;2.00;1.00;;;;;14.72;45.26;100730.91;5022894;28;45165;-70
2022/03/13 09:06:17;;;;;;;;;3.00;3.00;;;;;15.02;47.33;100719.19;5022819;28;45481;-69
2022/03/13 09:08:42;;;;;;;;;2.00;2.00;;;;;15.30;46.36;100719.53;5023143;28;45606;-69
2022/03/13 09:11:09;;;;;;;;;0.00;0.00;;;;;15.51;46.96;100727.09;5017715;28;45441;-69
2022/03/13 09:13:36;;;;;;;;;3.00;3.00;;;;;15.50;45.24;100731.72;5023614;28;45411;-69
2022/03/13 09:16:02;;;;;;;;;4.00;2.67;;;;;15.55;45.40;100723.88;5018668;28;45382;-69
2022/03/13 09:18:27;;;;;;;;;2.67;2.33;;;;;15.32;45.65;100733.06;5022081;28;45426;-69
2022/03/13 09:20:52;;;;;;;;;4.00;4.00;;;;;15.37;44.78;100728.75;5020973;28;46500;-69
2022/03/13 09:23:18;;;;;;;;;2.00;2.00;;;;;15.64;45.36;100727.38;5024258;28;45303;-69
2022/03/13 09:25:43;;;;;;;;;2.00;2.00;;;;;15.77;44.87;100722.19;5013873;28;45300;-69
2022/03/13 09:28:09;;;;;;;;;2.00;2.00;;;;;15.93;44.87;100722.03;5024518;28;45268;-69
2022/03/13 09:30:35;;;;;;;;;0.00;0.00;;;;;15.84;44.01;100738.75;5013019;28;47894;-69
2022/03/13 09:33:01;;;;;;;;;2.00;2.00;;;;;15.76;44.36;100730.56;5024221;28;45359;-69
2022/03/13 09:35:27;;;;;;;;;5.00;3.33;;;;;15.74;45.16;100724.41;5018030;28;45473;-69
2022/03/13 09:37:53;;;;;;;;;2.67;2.00;;;;;15.58;44.45;100722.66;5024235;28;45529;-69
2022/03/13 09:40:19;;;;;;;;;3.00;3.00;;;;;15.38;44.85;100727.72;5015099;28;46098;-69
2022/03/13 09:42:46;;;;;;;;;4.33;4.00;;;;;15.31;44.68;100729.47;5023783;28;45248;-69
2022/03/13 09:45:12;;;;;;;;;1.33;1.33;;;;;14.87;45.44;100736.50;5021411;28;45718;-69
2022/03/13 09:47:40;;;;;;;;;4.00;3.00;;;;;14.54;46.69;100735.75;5023526;28;45439;-69
2022/03/13 09:50:08;;;;;;;;;2.00;2.00;;;;;14.44;46.33;100737.81;5016991;28;45326;-69
2022/03/13 09:52:36;;;;;;;;;2.00;2.00;;;;;14.32;47.44;100740.00;5023685;28;45429;-68
2022/03/13 09:55:01;;;;;;;;;1.33;1.00;;;;;14.25;48.05;100737.09;5015864;28;45323;-68
2022/03/13 09:57:27;;;;;;;;;1.00;1.00;;;;;14.24;47.07;100729.09;5023988;28;45529;-68
2022/03/13 09:59:53;;;;;;;;;2.00;2.00;;;;;14.36;47.41;100735.91;5016726;28;47408;-68
2022/03/13 10:02:18;;;;;;;;;3.00;2.00;;;;;14.38;46.96;100744.84;5023408;28;45319;-68
2022/03/13 10:04:44;;;;;;;;;2.00;2.00;;;;;14.33;47.58;100738.97;5020074;28;45347;-71
2022/03/13 10:07:14;;;;;;;;;2.00;2.00;;;;;14.31;47.89;100741.06;5024093;28;45188;-68
2022/03/13 10:09:43;;;;;;;;;1.00;1.00;;;;;14.12;46.82;100736.78;5026201;28;47890;-68
2022/03/13 10:12:13;;;;;;;;;2.00;2.00;;;;;14.00;48.39;100741.75;5019857;28;45423;-68
2022/03/13 10:14:58;;;;;;;;;2.00;2.00;;;;;13.81;48.75;100753.00;5019939;28;45422;-68
2022/03/13 10:17:33;;;;;;;;;1.67;1.00;;;;;13.92;48.81;100739.00;5021030;28;45600;-69
2022/03/13 10:20:14;;;;;;;;;1.67;1.67;;;;;14.06;47.97;100739.34;5012652;28;46123;-70
2022/03/13 10:22:40;;;;;;;;;2.00;2.00;;;;;14.10;48.42;100738.00;5021639;28;45411;-68
2022/03/13 10:25:05;;;;;;;;;2.33;2.33;;;;;13.92;48.54;100727.22;5021054;28;45494;-68
2022/03/13 10:27:33;;;;;;;;;1.33;1.33;;;;;13.91;49.04;100731.00;5022219;28;45461;-68
2022/03/13 10:30:01;;;;;;;;;2.00;2.00;;;;;13.93;49.01;100735.25;5020539;28;47416;-68
2022/03/13 10:32:26;;;;;;;;;3.00;2.00;;;;;13.71;48.49;100741.38;5022754;28;45320;-68
2022/03/13 10:34:54;;;;;;;;;2.33;2.33;;;;;13.61;48.86;100729.75;5017393;28;45371;-68
2022/03/13 10:37:42;;;;;;;;;2.00;0.00;;;;;13.47;50.44;100730.41;5017787;28;45478;-68
2022/03/13 10:40:36;;;;;;;;;2.67;2.00;;;;;13.50;50.16;100721.91;5017499;28;46196;-68
2022/03/13 10:43:04;;;;;;;;;3.67;2.00;;;;;13.49;49.76;100723.78;5012029;28;45354;-68
2022/03/13 10:45:38;;;;;;;;;4.00;3.00;;;;;13.54;49.85;100726.84;5015898;28;45389;-68
2022/03/13 10:48:21;;;;;;;;;4.00;2.00;;;;;13.52;49.98;100728.88;5012715;28;45697;-68
2022/03/13 10:50:48;;;;;;;;;12.33;11.67;;;;;13.42;49.90;100724.63;5021461;28;46178;-68
2022/03/13 10:53:14;;;;;;;;;3.00;3.00;;;;;13.41;50.15;100723.75;5022227;28;45374;-68
2022/03/13 10:55:44;;;;;;;;;3.00;3.00;;;;;13.46;51.37;100715.91;5021572;28;45311;-68
2022/03/13 10:58:10;;;;;;;;;4.00;3.33;;;;;13.47;50.72;100717.63;5022201;28;45458;-68
2022/03/13 11:00:36;;;;;;;;;2.00;2.00;;;;;13.50;50.29;100711.00;5020131;28;45533;-68
2022/03/13 11:03:14;;;;;;;;;4.00;3.00;;;;;13.61;50.26;100708.78;5014895;28;45537;-68
2022/03/13 11:05:40;;;;;;;;;2.00;2.00;;;;;13.64;50.31;100722.09;5021458;28;45566;-68
2022/03/13 11:08:07;;;;;;;;;4.33;3.33;;;;;13.63;49.81;100714.06;5020444;28;45327;-68
2022/03/13 11:10:35;;;;;;;;;3.67;3.67;;;;;13.52;50.44;100722.56;5021662;28;45697;-68
2022/03/13 11:13:03;;;;;;;;;4.00;3.00;;;;;13.63;49.54;100727.72;5022457;28;45402;-69
2022/03/13 11:15:30;;;;;;;;;1.00;1.00;;;;;13.65;50.07;100725.69;5020219;28;45375;-68
2022/03/13 11:17:56;;;;;;;;;3.67;2.00;;;;;13.62;49.54;100726.00;5021446;28;45398;-68
2022/03/13 11:20:23;;;;;;;;;6.00;4.00;;;;;13.61;49.63;100724.31;5021476;28;46421;-68
2022/03/13 11:22:49;;;;;;;;;2.67;2.00;;;;;13.51;49.38;100709.97;5022511;28;45361;-69
2022/03/13 11:25:16;;;;;;;;;2.33;2.33;;;;;13.56;49.76;100723.97;5021568;28;45414;-69